createdAt,value
2022-08-17T00:00:34.543Z,4.37
2022-08-17T00:03:26.926Z,4.20
2022-08-17T00:06:13.023Z,4.15
2022-08-17T00:08:46.056Z,4.20
2022-08-17T00:11:25.662Z,4.87
2022-08-17T00:13:56.121Z,4.62
2022-08-17T00:16:55.461Z,4.77
2022-08-17T00:19:23.947Z,4.90
2022-08-17T00:22:30.877Z,5.00
2022-08-17T00:24:39.592Z,4.85
2022-08-17T00:27:06.414Z,4.87
2022-08-17T00:29:33.366Z,4.77
2022-08-17T00:32:01.726Z,5.12
2022-08-17T00:34:48.593Z,5.05
2022-08-17T00:37:15.603Z,4.93
2022-08-17T00:39:42.657Z,5.07
2022-08-17T00:42:15.930Z,4.57
2022-08-17T00:44:42.778Z,4.80
2022-08-17T00:47:09.791Z,5.00
2022-08-17T00:49:36.849Z,4.78
2022-08-17T00:52:15.582Z,4.82
2022-08-17T00:54:46.813Z,4.77
2022-08-17T00:57:17.106Z,5.12
2022-08-17T01:00:01.513Z,5.15
2022-08-17T01:02:36.680Z,4.50
2022-08-17T01:05:16.416Z,5.07
2022-08-17T01:07:47.899Z,5.27
2022-08-17T01:11:00.679Z,5.00
2022-08-17T01:13:04.448Z,4.97
2022-08-17T01:15:36.464Z,4.87
2022-08-17T01:18:06.590Z,4.85
2022-08-17T01:20:43.136Z,5.20
2022-08-17T01:23:19.875Z,5.53
2022-08-17T01:25:54.928Z,5.10
2022-08-17T01:28:52.266Z,5.20
2022-08-17T01:31:10.884Z,5.32
2022-08-17T01:33:37.836Z,6.20
2022-08-17T01:36:07.310Z,5.28
2022-08-17T01:38:39.406Z,5.00
2022-08-17T01:41:13.263Z,5.32
2022-08-17T01:43:45.740Z,5.85
2022-08-17T01:46:22.807Z,4.70
2022-08-17T01:48:51.225Z,5.10
2022-08-17T01:51:19.218Z,6.00
2022-08-17T01:53:58.101Z,4.80
2022-08-17T01:56:26.404Z,5.53
2022-08-17T01:58:53.846Z,5.57
2022-08-17T02:01:24.620Z,5.35
2022-08-17T02:03:53.492Z,5.87
2022-08-17T02:06:45.183Z,5.00
2022-08-17T02:09:23.211Z,4.87
2022-08-17T02:11:52.471Z,5.13
2022-08-17T02:14:20.962Z,5.32
2022-08-17T02:16:47.814Z,5.20
2022-08-17T02:19:16.758Z,5.10
2022-08-17T02:21:47.787Z,5.32
2022-08-17T02:24:58.798Z,5.43
2022-08-17T02:27:13.720Z,5.62
2022-08-17T02:29:40.720Z,5.85
2022-08-17T02:32:28.243Z,5.28
2022-08-17T02:34:59.743Z,5.30
2022-08-17T02:37:28.478Z,5.40
2022-08-17T02:39:59.537Z,5.57
2022-08-17T02:42:32.823Z,5.30
2022-08-17T02:45:01.165Z,5.07
2022-08-17T02:47:29.000Z,5.53
2022-08-17T02:49:57.973Z,5.10
2022-08-17T02:52:43.139Z,5.40
2022-08-17T02:55:40.295Z,5.90
2022-08-17T02:58:10.619Z,5.50
2022-08-17T03:00:41.745Z,5.32
2022-08-17T03:03:10.779Z,5.30
2022-08-17T03:05:38.444Z,5.57
2022-08-17T03:08:06.557Z,5.70
2022-08-17T03:10:33.953Z,5.10
2022-08-17T03:13:01.669Z,5.40
2022-08-17T03:15:31.941Z,4.95
2022-08-17T03:17:59.733Z,5.20
2022-08-17T03:20:31.747Z,5.43
2022-08-17T03:23:01.746Z,5.43
2022-08-17T03:25:39.716Z,5.60
2022-08-17T03:28:07.477Z,5.15
2022-08-17T03:30:35.167Z,5.47
2022-08-17T03:33:04.310Z,5.37
2022-08-17T03:35:34.925Z,6.47
2022-08-17T03:38:02.102Z,5.57
2022-08-17T03:40:41.836Z,5.72
2022-08-17T03:43:18.814Z,5.57
2022-08-17T03:46:04.130Z,6.03
2022-08-17T03:48:51.367Z,6.07
2022-08-17T03:51:40.772Z,5.97
2022-08-17T03:54:28.842Z,6.25
2022-08-17T03:57:09.494Z,5.87
2022-08-17T03:59:38.343Z,5.95
2022-08-17T04:02:11.525Z,5.90
2022-08-17T04:04:39.580Z,6.33
2022-08-17T04:07:06.840Z,6.62
2022-08-17T04:09:35.027Z,6.25
2022-08-17T04:12:04.765Z,5.90
2022-08-17T04:14:39.273Z,6.28
2022-08-17T04:17:20.621Z,6.20
2022-08-17T04:19:48.213Z,6.15
2022-08-17T04:22:32.421Z,6.03
2022-08-17T04:25:22.054Z,6.15
2022-08-17T04:27:48.924Z,5.95
2022-08-17T04:30:15.965Z,6.53
2022-08-17T04:33:06.482Z,5.37
2022-08-17T04:35:46.145Z,5.72
2022-08-17T04:38:15.785Z,5.90
2022-08-17T04:41:02.185Z,5.90
2022-08-17T04:43:31.180Z,5.83
2022-08-17T04:46:00.724Z,6.00
2022-08-17T04:48:36.263Z,5.90
2022-08-17T04:51:31.637Z,5.28
2022-08-17T04:54:01.473Z,5.65
2022-08-17T04:56:30.095Z,5.73
2022-08-17T04:59:01.609Z,5.85
2022-08-17T05:01:31.932Z,6.10
2022-08-17T05:04:01.878Z,6.43
2022-08-17T05:06:49.659Z,6.05
2022-08-17T05:09:18.051Z,6.57
2022-08-17T05:11:45.895Z,6.18
2022-08-17T05:14:13.993Z,6.82
2022-08-17T05:16:40.894Z,6.10
2022-08-17T05:19:07.690Z,6.78
2022-08-17T05:21:34.575Z,6.20
2022-08-17T05:24:01.538Z,6.45
2022-08-17T05:26:32.876Z,7.00
2022-08-17T05:29:03.455Z,7.15
2022-08-17T05:31:30.835Z,6.68
2022-08-17T05:33:58.210Z,6.37
2022-08-17T05:36:41.730Z,6.15
2022-08-17T05:39:16.124Z,6.25
2022-08-17T05:41:45.891Z,6.28
2022-08-17T05:44:12.755Z,6.50
2022-08-17T05:46:44.994Z,6.47
2022-08-17T05:49:14.804Z,5.90
2022-08-17T05:51:41.545Z,6.65
2022-08-17T05:54:27.243Z,6.78
2022-08-17T05:57:15.116Z,6.28
2022-08-17T06:00:11.345Z,6.23
2022-08-17T06:02:53.299Z,5.75
2022-08-17T06:05:48.444Z,6.00
2022-08-17T06:09:02.407Z,6.18
2022-08-17T06:12:18.900Z,6.05
2022-08-17T06:15:37.283Z,5.90
2022-08-17T06:18:08.120Z,5.93
2022-08-17T06:21:08.628Z,5.60
2022-08-17T06:23:45.301Z,5.90
2022-08-17T06:26:21.238Z,5.75
2022-08-17T06:29:04.359Z,5.47
2022-08-17T06:31:36.965Z,5.87
2022-08-17T06:34:07.370Z,5.70
2022-08-17T06:36:52.425Z,5.05
2022-08-17T06:39:31.129Z,5.07
2022-08-17T06:43:02.437Z,5.40
2022-08-17T06:45:07.918Z,5.80
2022-08-17T06:47:34.855Z,5.43
2022-08-17T06:50:07.775Z,5.70
2022-08-17T06:52:53.904Z,5.62
2022-08-17T06:55:33.266Z,5.60
2022-08-17T06:58:16.003Z,5.22
2022-08-17T07:00:47.284Z,5.43
2022-08-17T07:03:55.632Z,5.53
2022-08-17T07:06:27.057Z,4.55
2022-08-17T07:09:01.221Z,4.83
2022-08-17T07:11:38.583Z,4.78
2022-08-17T07:14:23.940Z,5.05
2022-08-17T07:16:53.578Z,4.72
2022-08-17T07:19:24.403Z,5.12
2022-08-17T07:22:08.643Z,5.50
2022-08-17T07:24:47.283Z,4.78
2022-08-17T07:27:28.167Z,4.70
2022-08-17T07:30:10.834Z,3.97
2022-08-17T07:32:51.358Z,4.10
2022-08-17T07:35:37.592Z,4.33
2022-08-17T07:38:24.749Z,4.40
2022-08-17T07:41:03.164Z,4.50
2022-08-17T07:43:47.735Z,3.83
2022-08-17T07:46:37.514Z,4.07
2022-08-17T07:49:05.095Z,4.23
2022-08-17T07:51:39.654Z,3.90
2022-08-17T07:54:15.733Z,5.12
2022-08-17T07:56:44.661Z,4.82
2022-08-17T07:59:13.612Z,4.60
2022-08-17T08:01:44.984Z,4.37
2022-08-17T08:07:18.992Z,3.65
2022-08-17T08:10:25.142Z,3.95
2022-08-17T08:13:05.742Z,4.55
2022-08-17T08:15:45.167Z,4.20
2022-08-17T08:18:38.630Z,3.83
2022-08-17T08:21:36.124Z,4.22
2022-08-17T08:24:36.781Z,4.40
2022-08-17T08:27:07.307Z,3.92
2022-08-17T08:29:55.675Z,4.30
2022-08-17T08:32:38.410Z,4.65
2022-08-17T08:35:23.679Z,4.60
2022-08-17T08:37:53.271Z,4.75
2022-08-17T08:40:39.484Z,4.50
2022-08-17T08:43:31.010Z,4.27
2022-08-17T08:46:00.520Z,4.82
2022-08-17T08:49:45.060Z,4.78
2022-08-17T08:52:39.474Z,4.93
2022-08-17T08:55:14.115Z,5.10
2022-08-17T08:58:00.849Z,4.60
2022-08-17T09:00:36.237Z,4.35
2022-08-17T09:03:17.547Z,5.07
2022-08-17T09:06:03.768Z,4.78
2022-08-17T09:08:50.112Z,4.57
2022-08-17T09:12:01.766Z,4.95
2022-08-17T09:14:49.966Z,5.37
2022-08-17T09:17:25.414Z,5.28
2022-08-17T09:20:04.830Z,4.82
2022-08-17T09:22:42.704Z,5.53
2022-08-17T09:25:17.485Z,5.30
2022-08-17T09:28:00.673Z,4.60
2022-08-17T09:30:37.843Z,5.22
2022-08-17T09:33:09.160Z,4.90
2022-08-17T09:35:44.571Z,5.65
2022-08-17T09:38:44.095Z,5.07
2022-08-17T09:41:38.129Z,5.22
2022-08-17T09:44:42.793Z,5.07
2022-08-17T09:47:26.166Z,5.75
2022-08-17T09:50:00.460Z,5.47
2022-08-17T09:52:29.665Z,5.23
2022-08-17T09:55:01.813Z,5.75
2022-08-17T09:57:34.238Z,5.25
2022-08-17T10:00:17.973Z,5.03
2022-08-17T10:03:16.152Z,5.22
2022-08-17T10:05:56.664Z,5.47
2022-08-17T10:08:27.940Z,6.03
2022-08-17T10:11:05.789Z,5.55
2022-08-17T10:13:38.691Z,5.80
2022-08-17T10:16:17.526Z,5.82
2022-08-17T10:18:59.323Z,5.07
2022-08-17T10:21:45.168Z,5.70
2022-08-17T10:24:36.789Z,5.60
2022-08-17T10:27:10.733Z,5.30
2022-08-17T10:29:54.003Z,5.68
2022-08-17T10:32:32.928Z,5.93
2022-08-17T10:35:18.095Z,5.87
2022-08-17T10:37:48.049Z,5.80
2022-08-17T10:40:21.433Z,5.05
2022-08-17T10:42:58.007Z,5.45
2022-08-17T10:45:49.596Z,6.10
2022-08-17T10:48:38.715Z,5.25
2022-08-17T10:51:34.566Z,5.75
2022-08-17T10:54:02.243Z,5.50
2022-08-17T10:56:45.527Z,6.07
2022-08-17T10:59:34.821Z,5.63
2022-08-17T11:02:04.598Z,5.75
2022-08-17T11:04:55.876Z,5.07
2022-08-17T11:07:37.777Z,5.60
2022-08-17T11:10:42.208Z,5.35
2022-08-17T11:13:08.967Z,5.83
2022-08-17T11:15:45.832Z,5.93
2022-08-17T11:18:50.915Z,5.45
2022-08-17T11:21:29.839Z,5.35
2022-08-17T11:24:05.210Z,5.15
2022-08-17T11:26:37.417Z,4.90
2022-08-17T11:29:16.772Z,5.30
2022-08-17T11:31:58.497Z,4.85
2022-08-17T11:34:29.088Z,4.87
2022-08-17T11:37:00.435Z,5.10
2022-08-17T11:39:30.598Z,5.80
2022-08-17T11:42:00.624Z,5.03
2022-08-17T11:44:34.890Z,5.35
2022-08-17T11:47:49.525Z,4.68
2022-08-17T11:51:08.718Z,4.37
2022-08-17T11:53:38.651Z,4.50
2022-08-17T11:56:28.850Z,4.10
2022-08-17T11:58:55.963Z,4.62
2022-08-17T12:01:22.793Z,3.97
2022-08-17T12:04:25.510Z,4.78
2022-08-17T12:07:23.204Z,4.80
2022-08-17T12:09:57.231Z,4.43
2022-08-17T12:12:35.519Z,4.85
2022-08-17T12:15:10.607Z,4.50
2022-08-17T12:17:41.756Z,4.65
2022-08-17T12:20:15.789Z,4.73
2022-08-17T12:22:57.654Z,4.68
2022-08-17T12:25:34.237Z,4.40
2022-08-17T12:28:05.173Z,4.43
2022-08-17T12:30:34.264Z,5.20
2022-08-17T12:33:01.070Z,5.03
2022-08-17T12:35:38.983Z,4.78
2022-08-17T12:38:32.199Z,4.95
2022-08-17T12:40:58.509Z,4.93
2022-08-17T12:43:31.243Z,5.20
2022-08-17T12:46:13.020Z,5.10
2022-08-17T12:48:59.093Z,4.95
2022-08-17T12:51:29.212Z,4.60
2022-08-17T12:53:56.475Z,4.40
2022-08-17T12:56:23.292Z,4.87
2022-08-17T12:58:54.142Z,4.73
2022-08-17T13:01:23.511Z,4.43
2022-08-17T13:03:53.687Z,4.62
2022-08-17T13:06:35.731Z,4.43
2022-08-17T13:09:11.920Z,4.18
2022-08-17T13:11:51.265Z,3.90
2022-08-17T13:14:19.233Z,4.57
2022-08-17T13:16:59.734Z,4.00
2022-08-17T13:19:40.823Z,4.30
2022-08-17T13:22:12.841Z,4.30
2022-08-17T13:24:53.152Z,4.27
2022-08-17T13:27:22.567Z,4.15
2022-08-17T13:29:55.839Z,4.18
2022-08-17T13:32:46.570Z,4.03
2022-08-17T13:35:44.190Z,4.35
2022-08-17T13:38:35.957Z,3.87
2022-08-17T13:41:04.139Z,3.97
2022-08-17T13:43:44.877Z,3.90
2022-08-17T13:46:23.966Z,3.83
2022-08-17T13:49:09.958Z,2.95
2022-08-17T13:51:45.838Z,4.33
2022-08-17T13:54:39.245Z,3.97
2022-08-17T13:57:12.110Z,3.90
2022-08-17T13:59:54.767Z,4.10
2022-08-17T14:02:26.104Z,4.57
2022-08-17T14:04:56.816Z,4.47
2022-08-17T14:07:29.147Z,4.62
2022-08-17T14:10:10.756Z,4.22
2022-08-17T14:12:40.240Z,4.28
2022-08-17T14:15:08.815Z,4.07
2022-08-17T14:17:38.909Z,4.70
2022-08-17T14:20:20.051Z,4.03
2022-08-17T14:22:51.551Z,4.37
2022-08-17T14:25:22.141Z,4.37
2022-08-17T14:27:53.456Z,4.12
2022-08-17T14:30:25.667Z,4.00
2022-08-17T14:32:54.400Z,4.32
2022-08-17T14:35:23.928Z,4.47
2022-08-17T14:37:51.946Z,4.50
2022-08-17T14:40:20.901Z,4.12
2022-08-17T14:42:48.244Z,4.00
2022-08-17T14:45:31.983Z,3.78
2022-08-17T14:48:04.161Z,4.18
2022-08-17T14:50:31.813Z,4.30
2022-08-17T14:52:59.322Z,4.28
2022-08-17T14:55:29.832Z,4.47
2022-08-17T14:57:57.086Z,4.20
2022-08-17T15:00:25.461Z,4.03
2022-08-17T15:02:56.681Z,4.30
2022-08-17T15:05:27.805Z,4.05
2022-08-17T15:07:55.794Z,3.90
2022-08-17T15:10:24.751Z,3.90
2022-08-17T15:12:53.004Z,3.55
2022-08-17T15:15:20.380Z,4.30
2022-08-17T15:17:47.470Z,4.25
2022-08-17T15:20:17.857Z,4.07
2022-08-17T15:22:47.060Z,4.47
2022-08-17T15:25:14.597Z,4.15
2022-08-17T15:27:42.100Z,3.60
2022-08-17T15:30:10.618Z,4.37
2022-08-17T15:32:41.297Z,4.40
2022-08-17T15:35:18.211Z,3.97
2022-08-17T15:37:45.283Z,3.65
2022-08-17T15:40:13.312Z,4.12
2022-08-17T15:42:41.384Z,3.50
2022-08-17T15:45:12.818Z,4.23
2022-08-17T15:47:40.596Z,3.67
2022-08-17T15:50:10.148Z,3.83
2022-08-17T15:52:40.297Z,3.35
2022-08-17T15:55:11.496Z,3.85
2022-08-17T15:57:38.976Z,3.40
2022-08-17T16:00:08.727Z,3.78
2022-08-17T16:03:13.739Z,3.58
2022-08-17T16:05:25.294Z,3.55
2022-08-17T16:07:53.408Z,3.28
2022-08-17T16:10:21.134Z,3.33
2022-08-17T16:12:50.088Z,3.53
2022-08-17T16:15:18.680Z,3.95
2022-08-17T16:17:46.177Z,3.50
2022-08-17T16:20:19.543Z,3.37
2022-08-17T16:22:50.190Z,3.10
2022-08-17T16:25:51.884Z,3.10
2022-08-17T16:28:11.411Z,3.22
2022-08-17T16:30:38.363Z,2.80
2022-08-17T16:33:05.970Z,3.50
2022-08-17T16:35:33.357Z,2.90
2022-08-17T16:38:00.271Z,3.15
2022-08-17T16:40:29.536Z,3.00
2022-08-17T16:42:58.131Z,3.03
2022-08-17T16:45:27.894Z,2.90
2022-08-17T16:47:59.191Z,3.13
2022-08-17T16:50:26.339Z,2.90
2022-08-17T16:53:06.722Z,2.83
2022-08-17T16:55:37.473Z,2.40
2022-08-17T16:58:05.719Z,2.80
2022-08-17T17:00:33.868Z,2.83
2022-08-17T17:03:19.973Z,3.22
2022-08-17T17:06:07.147Z,2.90
2022-08-17T17:08:48.557Z,2.47
2022-08-17T17:11:26.651Z,2.85
2022-08-17T17:14:01.558Z,3.10
2022-08-17T17:16:57.157Z,2.87
2022-08-17T17:19:34.918Z,2.80
2022-08-17T17:22:13.955Z,3.00
2022-08-17T17:25:08.876Z,2.40
2022-08-17T17:27:36.500Z,2.80
2022-08-17T17:30:20.849Z,2.70
2022-08-17T17:33:07.010Z,3.00
2022-08-17T17:36:06.937Z,2.80
2022-08-17T17:38:49.037Z,2.55
2022-08-17T17:41:26.106Z,2.73
2022-08-17T17:44:01.692Z,2.83
2022-08-17T17:46:38.027Z,2.80
2022-08-17T17:49:06.205Z,2.70
2022-08-17T17:52:05.296Z,2.67
2022-08-17T17:54:48.982Z,2.73
2022-08-17T17:57:30.096Z,2.75
2022-08-17T18:00:14.166Z,3.17
2022-08-17T18:02:52.061Z,3.05
2022-08-17T18:05:45.114Z,2.42
2022-08-17T18:08:34.929Z,3.07
2022-08-17T18:11:36.274Z,2.92
2022-08-17T18:14:31.202Z,2.80
2022-08-17T18:17:01.259Z,2.87
2022-08-17T18:19:31.347Z,3.50
2022-08-17T18:22:16.223Z,3.33
2022-08-17T18:24:46.633Z,3.30
2022-08-17T18:27:24.483Z,3.00
2022-08-17T18:29:55.928Z,3.17
2022-08-17T18:32:29.145Z,2.62
2022-08-17T18:35:19.434Z,3.00
2022-08-17T18:37:52.820Z,3.60
2022-08-17T18:40:20.532Z,3.50
2022-08-17T18:42:50.258Z,3.08
2022-08-17T18:45:49.007Z,3.42
2022-08-17T18:48:28.400Z,3.10
2022-08-17T18:50:59.611Z,3.22
2022-08-17T18:53:33.968Z,3.72
2022-08-17T18:56:16.576Z,3.55
2022-08-17T18:59:10.320Z,3.60
2022-08-17T19:01:53.422Z,3.37
2022-08-17T19:04:41.446Z,3.85
2022-08-17T19:07:17.438Z,3.92
2022-08-17T19:09:56.978Z,3.80
2022-08-17T19:12:33.346Z,3.80
2022-08-17T19:15:01.103Z,4.60
2022-08-17T19:18:00.511Z,3.95
2022-08-17T19:20:53.906Z,4.18
2022-08-17T19:23:53.735Z,3.92
2022-08-17T19:26:50.656Z,4.40
2022-08-17T19:29:25.700Z,3.90
2022-08-17T19:31:55.593Z,4.12
2022-08-17T19:34:33.462Z,4.12
2022-08-17T19:37:01.290Z,3.78
2022-08-17T19:39:40.364Z,3.80
2022-08-17T19:42:19.727Z,3.90
2022-08-17T19:44:56.422Z,4.40
2022-08-17T19:47:55.618Z,4.12
2022-08-17T19:50:47.400Z,4.00
2022-08-17T19:53:36.888Z,3.95
2022-08-17T19:56:34.935Z,4.37
2022-08-17T19:59:21.128Z,4.30
2022-08-17T20:01:53.036Z,4.20
2022-08-17T20:04:32.350Z,4.07
2022-08-17T20:07:09.134Z,4.55
2022-08-17T20:09:44.657Z,3.97
2022-08-17T20:12:19.058Z,4.28
2022-08-17T20:15:25.394Z,4.50
2022-08-17T20:17:53.454Z,4.25
2022-08-17T20:20:39.211Z,3.83
2022-08-17T20:23:30.722Z,3.63
2022-08-17T20:26:19.445Z,4.07
2022-08-17T20:29:08.172Z,3.97
2022-08-17T20:31:56.015Z,3.97
2022-08-17T20:34:33.708Z,4.12
2022-08-17T20:37:08.619Z,3.80
2022-08-17T20:39:45.773Z,3.60
2022-08-17T20:42:21.653Z,4.28
2022-08-17T20:44:51.790Z,3.90
2022-08-17T20:47:27.333Z,4.00
2022-08-17T20:50:26.944Z,3.93
2022-08-17T20:52:57.938Z,4.20
2022-08-17T20:55:34.123Z,3.90
2022-08-17T20:58:16.420Z,3.75
2022-08-17T21:01:08.627Z,3.75
2022-08-17T21:03:49.263Z,3.60
2022-08-17T21:06:20.980Z,3.60
2022-08-17T21:08:57.610Z,3.37
2022-08-17T21:12:01.469Z,3.12
2022-08-17T21:14:39.780Z,3.87
2022-08-17T21:17:33.704Z,4.20
2022-08-17T21:20:11.980Z,3.60
2022-08-17T21:23:01.541Z,3.75
2022-08-17T21:25:48.934Z,3.80
2022-08-17T21:28:23.185Z,3.53
2022-08-17T21:31:08.978Z,3.60
2022-08-17T21:33:39.121Z,4.18
2022-08-17T21:36:12.014Z,3.87
2022-08-17T21:38:47.964Z,3.70
2022-08-17T21:41:26.433Z,3.97
2022-08-17T21:44:02.741Z,4.17
2022-08-17T21:46:36.941Z,3.75
2022-08-17T21:49:13.771Z,4.50
2022-08-17T21:51:51.270Z,4.78
2022-08-17T21:54:38.888Z,3.97
2022-08-17T21:57:15.636Z,4.27
2022-08-17T21:59:44.334Z,4.25
2022-08-17T22:02:35.384Z,4.03
2022-08-17T22:05:07.536Z,4.20
2022-08-17T22:07:40.820Z,4.07
2022-08-17T22:10:30.500Z,4.60
2022-08-17T22:13:21.533Z,4.03
2022-08-17T22:15:49.957Z,3.75
2022-08-17T22:18:25.265Z,3.90
2022-08-17T22:20:55.387Z,4.22
2022-08-17T22:23:47.963Z,4.03
2022-08-17T22:26:17.821Z,4.32
2022-08-17T22:28:58.318Z,4.05
2022-08-17T22:31:28.860Z,4.10
2022-08-17T22:34:01.594Z,4.05
2022-08-17T22:36:39.471Z,3.70
2022-08-17T22:39:09.097Z,3.80
2022-08-17T22:41:47.576Z,3.85
2022-08-17T22:44:47.003Z,3.55
2022-08-17T22:47:17.221Z,3.60
2022-08-17T22:49:53.248Z,3.77
2022-08-17T22:52:32.876Z,3.95
2022-08-17T22:55:22.823Z,3.97
2022-08-17T22:58:10.463Z,3.58
2022-08-17T23:00:43.523Z,3.90
2022-08-17T23:03:17.886Z,4.00
2022-08-17T23:05:49.012Z,3.90
2022-08-17T23:08:21.229Z,3.60
2022-08-17T23:10:48.656Z,3.92
2022-08-17T23:13:15.726Z,4.00
2022-08-17T23:15:43.078Z,3.67
2022-08-17T23:18:10.088Z,3.50
2022-08-17T23:20:41.838Z,3.70
2022-08-17T23:23:11.392Z,3.95
2022-08-17T23:25:38.581Z,3.60
2022-08-17T23:28:07.031Z,4.13
2022-08-17T23:30:39.357Z,4.07
2022-08-17T23:33:10.857Z,3.83
2022-08-17T23:35:39.868Z,3.65
2022-08-17T23:38:09.617Z,3.70
2022-08-17T23:40:37.808Z,4.33
2022-08-17T23:45:57.433Z,3.75
2022-08-17T23:48:32.666Z,3.60
2022-08-17T23:51:08.786Z,3.60
2022-08-17T23:53:39.082Z,3.93
2022-08-17T23:56:10.349Z,3.83
2022-08-17T23:58:39.867Z,3.67
